sensor_id;sensor_type;location;lat;lon;timestamp;pressure;altitude;pressure_sealevel;temperature;humidity
52249;BME280;38541;48.130;8.378;2023-05-29T00:02:04;92770.56;;;12.60;59.49
52249;BME280;38541;48.130;8.378;2023-05-29T00:04:30;92762.63;;;12.65;59.29
52249;BME280;38541;48.130;8.378;2023-05-29T00:06:57;92760.88;;;12.50;59.43
52249;BME280;38541;48.130;8.378;2023-05-29T00:09:23;92768.53;;;12.46;59.38
52249;BME280;38541;48.130;8.378;2023-05-29T00:11:50;92769.66;;;12.35;59.51
52249;BME280;38541;48.130;8.378;2023-05-29T00:14:19;92766.25;;;12.29;60.09
52249;BME280;38541;48.130;8.378;2023-05-29T00:16:46;92768.63;;;12.31;60.04
52249;BME280;38541;48.130;8.378;2023-05-29T00:19:13;92762.84;;;12.29;60.25
52249;BME280;38541;48.130;8.378;2023-05-29T00:21:40;92764.13;;;12.31;59.86
52249;BME280;38541;48.130;8.378;2023-05-29T00:24:07;92762.34;;;12.26;59.81
52249;BME280;38541;48.130;8.378;2023-05-29T00:26:34;92759.72;;;12.21;59.90
52249;BME280;38541;48.130;8.378;2023-05-29T00:29:01;92758.94;;;12.21;60.25
52249;BME280;38541;48.130;8.378;2023-05-29T00:31:27;92763.66;;;12.24;60.04
52249;BME280;38541;48.130;8.378;2023-05-29T00:33:54;92752.69;;;12.06;60.18
52249;BME280;38541;48.130;8.378;2023-05-29T00:36:21;92760.31;;;12.08;60.08
52249;BME280;38541;48.130;8.378;2023-05-29T00:38:48;92755.06;;;12.03;60.65
52249;BME280;38541;48.130;8.378;2023-05-29T00:41:15;92767.69;;;12.06;60.34
52249;BME280;38541;48.130;8.378;2023-05-29T00:43:43;92759.00;;;12.00;60.51
52249;BME280;38541;48.130;8.378;2023-05-29T00:46:12;92759.78;;;12.01;60.37
52249;BME280;38541;48.130;8.378;2023-05-29T00:48:43;92762.91;;;12.13;60.34
52249;BME280;38541;48.130;8.378;2023-05-29T00:51:11;92758.75;;;12.07;59.77
52249;BME280;38541;48.130;8.378;2023-05-29T00:53:40;92761.63;;;12.05;60.08
52249;BME280;38541;48.130;8.378;2023-05-29T00:56:07;92766.13;;;12.05;60.09
52249;BME280;38541;48.130;8.378;2023-05-29T00:58:35;92759.81;;;11.95;60.13
52249;BME280;38541;48.130;8.378;2023-05-29T01:01:02;92768.78;;;11.89;60.58
52249;BME280;38541;48.130;8.378;2023-05-29T01:03:31;92770.34;;;11.90;60.77
52249;BME280;38541;48.130;8.378;2023-05-29T01:05:58;92767.44;;;11.92;59.86
52249;BME280;38541;48.130;8.378;2023-05-29T01:08:25;92771.97;;;11.86;59.99
52249;BME280;38541;48.130;8.378;2023-05-29T01:10:56;92765.66;;;11.77;60.26
52249;BME280;38541;48.130;8.378;2023-05-29T01:13:30;92770.16;;;11.66;60.82
52249;BME280;38541;48.130;8.378;2023-05-29T01:16:08;92768.09;;;11.58;60.92
52249;BME280;38541;48.130;8.378;2023-05-29T01:19:16;92770.47;;;11.54;60.79
52249;BME280;38541;48.130;8.378;2023-05-29T01:22:10;92769.44;;;11.50;61.16
52249;BME280;38541;48.130;8.378;2023-05-29T01:24:48;92764.16;;;11.45;61.44
52249;BME280;38541;48.130;8.378;2023-05-29T01:27:17;92772.03;;;11.45;61.43
52249;BME280;38541;48.130;8.378;2023-05-29T01:29:45;92761.00;;;11.42;61.63
52249;BME280;38541;48.130;8.378;2023-05-29T01:32:13;92763.91;;;11.36;61.68
52249;BME280;38541;48.130;8.378;2023-05-29T01:34:39;92770.22;;;11.35;61.79
52249;BME280;38541;48.130;8.378;2023-05-29T01:37:06;92766.31;;;11.32;61.42
52249;BME280;38541;48.130;8.378;2023-05-29T01:39:32;92774.97;;;11.27;62.01
52249;BME280;38541;48.130;8.378;2023-05-29T01:42:00;92773.16;;;11.28;61.76
52249;BME280;38541;48.130;8.378;2023-05-29T01:44:28;92769.97;;;11.21;62.02
52249;BME280;38541;48.130;8.378;2023-05-29T01:46:55;92769.47;;;11.13;61.65
52249;BME280;38541;48.130;8.378;2023-05-29T01:49:23;92772.09;;;11.13;61.97
52249;BME280;38541;48.130;8.378;2023-05-29T01:51:50;92772.09;;;11.13;62.05
52249;BME280;38541;48.130;8.378;2023-05-29T01:54:17;92769.22;;;11.10;62.30
52249;BME280;38541;48.130;8.378;2023-05-29T01:56:44;92774.72;;;11.08;61.98
52249;BME280;38541;48.130;8.378;2023-05-29T01:59:12;92760.25;;;11.11;61.88
52249;BME280;38541;48.130;8.378;2023-05-29T02:01:39;92773.16;;;11.12;62.01
52249;BME280;38541;48.130;8.378;2023-05-29T02:04:06;92774.22;;;11.11;61.73
52249;BME280;38541;48.130;8.378;2023-05-29T02:06:33;92771.56;;;11.06;61.84
52249;BME280;38541;48.130;8.378;2023-05-29T02:09:00;92773.66;;;10.89;62.23
52249;BME280;38541;48.130;8.378;2023-05-29T02:11:27;92762.88;;;10.80;62.72
52249;BME280;38541;48.130;8.378;2023-05-29T02:13:53;92769.19;;;10.79;62.45
52249;BME280;38541;48.130;8.378;2023-05-29T02:16:20;92763.69;;;10.75;62.23
52249;BME280;38541;48.130;8.378;2023-05-29T02:18:47;92768.41;;;10.68;62.50
52249;BME280;38541;48.130;8.378;2023-05-29T02:21:14;92771.03;;;10.63;63.01
52249;BME280;38541;48.130;8.378;2023-05-29T02:23:42;92764.72;;;10.59;62.80
52249;BME280;38541;48.130;8.378;2023-05-29T02:26:09;92776.53;;;10.56;63.34
52249;BME280;38541;48.130;8.378;2023-05-29T02:28:36;92774.69;;;10.51;63.49
52249;BME280;38541;48.130;8.378;2023-05-29T02:31:04;92771.53;;;10.49;63.25
52249;BME280;38541;48.130;8.378;2023-05-29T02:33:31;92772.34;;;10.50;63.43
52249;BME280;38541;48.130;8.378;2023-05-29T02:35:58;92774.16;;;10.44;63.50
52249;BME280;38541;48.130;8.378;2023-05-29T02:38:24;92776.78;;;10.44;63.39
52249;BME280;38541;48.130;8.378;2023-05-29T02:40:51;92776.25;;;10.47;63.47
52249;BME280;38541;48.130;8.378;2023-05-29T02:43:17;92774.16;;;10.44;63.23
52249;BME280;38541;48.130;8.378;2023-05-29T02:45:44;92773.59;;;10.37;63.80
52249;BME280;38541;48.130;8.378;2023-05-29T02:48:10;92765.72;;;10.37;63.50
52249;BME280;38541;48.130;8.378;2023-05-29T02:50:37;92764.16;;;10.36;63.30
52249;BME280;38541;48.130;8.378;2023-05-29T02:53:03;92761.75;;;10.34;63.36
52249;BME280;38541;48.130;8.378;2023-05-29T02:55:30;92761.47;;;10.25;64.26
52249;BME280;38541;48.130;8.378;2023-05-29T02:57:58;92755.47;;;10.25;64.33
52249;BME280;38541;48.130;8.378;2023-05-29T03:00:26;92763.06;;;10.26;64.18
52249;BME280;38541;48.130;8.378;2023-05-29T03:02:57;92762.00;;;10.27;63.65
52249;BME280;38541;48.130;8.378;2023-05-29T03:05:23;92758.06;;;10.20;63.96
52249;BME280;38541;48.130;8.378;2023-05-29T03:07:51;92758.84;;;10.15;63.59
52249;BME280;38541;48.130;8.378;2023-05-29T03:10:18;92762.75;;;10.12;63.76
52249;BME280;38541;48.130;8.378;2023-05-29T03:12:46;92760.91;;;10.08;64.03
52249;BME280;38541;48.130;8.378;2023-05-29T03:15:13;92768.25;;;10.01;63.88
52249;BME280;38541;48.130;8.378;2023-05-29T03:17:41;92763.25;;;9.99;63.73
52249;BME280;38541;48.130;8.378;2023-05-29T03:20:11;92757.47;;;9.97;64.23
52249;BME280;38541;48.130;8.378;2023-05-29T03:22:38;92757.97;;;9.89;64.09
52249;BME280;38541;48.130;8.378;2023-05-29T03:25:05;92759.25;;;9.86;64.53
52249;BME280;38541;48.130;8.378;2023-05-29T03:27:33;92756.88;;;9.84;64.46
52249;BME280;38541;48.130;8.378;2023-05-29T03:30:07;92754.53;;;9.78;64.67
52249;BME280;38541;48.130;8.378;2023-05-29T03:32:34;92755.88;;;9.85;64.24
52249;BME280;38541;48.130;8.378;2023-05-29T03:35:00;92749.28;;;9.78;63.72
52249;BME280;38541;48.130;8.378;2023-05-29T03:37:27;92755.56;;;9.77;64.97
52249;BME280;38541;48.130;8.378;2023-05-29T03:39:54;92747.41;;;9.73;65.03
52249;BME280;38541;48.130;8.378;2023-05-29T03:42:22;92752.94;;;9.77;64.86
52249;BME280;38541;48.130;8.378;2023-05-29T03:44:50;92742.47;;;9.82;64.89
52249;BME280;38541;48.130;8.378;2023-05-29T03:47:17;92742.69;;;9.75;64.92
52249;BME280;38541;48.130;8.378;2023-05-29T03:49:44;92750.28;;;9.71;64.82
52249;BME280;38541;48.130;8.378;2023-05-29T03:52:11;92748.16;;;9.68;64.75
52249;BME280;38541;48.130;8.378;2023-05-29T03:54:38;92753.94;;;9.65;64.64
52249;BME280;38541;48.130;8.378;2023-05-29T03:57:05;92754.97;;;9.59;64.78
52249;BME280;38541;48.130;8.378;2023-05-29T03:59:33;92761.25;;;9.58;64.69
52249;BME280;38541;48.130;8.378;2023-05-29T04:02:00;92768.09;;;9.64;64.86
52249;BME280;38541;48.130;8.378;2023-05-29T04:04:26;92763.63;;;9.65;64.40
52249;BME280;38541;48.130;8.378;2023-05-29T04:06:53;92756.03;;;9.63;64.56
52249;BME280;38541;48.130;8.378;2023-05-29T04:09:20;92765.44;;;9.59;65.24
52249;BME280;38541;48.130;8.378;2023-05-29T04:11:46;92773.84;;;9.61;64.73
52249;BME280;38541;48.130;8.378;2023-05-29T04:14:13;92775.97;;;9.69;64.58
52249;BME280;38541;48.130;8.378;2023-05-29T04:16:39;92777.53;;;9.60;64.77
52249;BME280;38541;48.130;8.378;2023-05-29T04:19:06;92778.28;;;9.61;64.99
52249;BME280;38541;48.130;8.378;2023-05-29T04:21:33;92790.88;;;9.59;65.33
52249;BME280;38541;48.130;8.378;2023-05-29T04:24:00;92790.59;;;9.55;65.94
52249;BME280;38541;48.130;8.378;2023-05-29T04:26:27;92798.00;;;9.63;65.82
52249;BME280;38541;48.130;8.378;2023-05-29T04:28:54;92794.06;;;9.66;65.60
52249;BME280;38541;48.130;8.378;2023-05-29T04:31:27;92797.50;;;9.71;65.22
52249;BME280;38541;48.130;8.378;2023-05-29T04:33:55;92802.19;;;9.64;65.95
52249;BME280;38541;48.130;8.378;2023-05-29T04:36:26;92809.56;;;9.67;65.45
52249;BME280;38541;48.130;8.378;2023-05-29T04:39:03;92815.59;;;9.68;65.53
52249;BME280;38541;48.130;8.378;2023-05-29T04:41:31;92809.84;;;9.71;65.99
52249;BME280;38541;48.130;8.378;2023-05-29T04:43:59;92812.19;;;9.73;65.40
52249;BME280;38541;48.130;8.378;2023-05-29T04:46:32;92804.38;;;9.78;65.54
52249;BME280;38541;48.130;8.378;2023-05-29T04:49:01;92806.22;;;9.82;65.36
52249;BME280;38541;48.130;8.378;2023-05-29T04:51:29;92808.59;;;9.84;65.75
52249;BME280;38541;48.130;8.378;2023-05-29T04:53:56;92807.25;;;9.81;65.84
52249;BME280;38541;48.130;8.378;2023-05-29T04:56:23;92805.97;;;9.84;66.06
52249;BME280;38541;48.130;8.378;2023-05-29T04:58:49;92807.56;;;9.90;65.76
52249;BME280;38541;48.130;8.378;2023-05-29T05:01:17;92810.22;;;9.95;65.96
52249;BME280;38541;48.130;8.378;2023-05-29T05:03:44;92813.91;;;9.99;66.22
52249;BME280;38541;48.130;8.378;2023-05-29T05:06:12;92815.50;;;10.06;66.00
52249;BME280;38541;48.130;8.378;2023-05-29T05:08:40;92810.25;;;10.06;66.45
52249;BME280;38541;48.130;8.378;2023-05-29T05:11:07;92804.78;;;10.12;66.40
52249;BME280;38541;48.130;8.378;2023-05-29T05:13:33;92815.28;;;10.18;66.60
52249;BME280;38541;48.130;8.378;2023-05-29T05:16:00;92819.25;;;10.25;66.30
52249;BME280;38541;48.130;8.378;2023-05-29T05:18:28;92814.28;;;10.29;66.72
52249;BME280;38541;48.130;8.378;2023-05-29T05:21:00;92817.69;;;10.30;66.82
52249;BME280;38541;48.130;8.378;2023-05-29T05:23:29;92811.44;;;10.41;67.18
52249;BME280;38541;48.130;8.378;2023-05-29T05:25:56;92819.34;;;10.46;67.09
52249;BME280;38541;48.130;8.378;2023-05-29T05:28:22;92809.63;;;10.57;66.63
52249;BME280;38541;48.130;8.378;2023-05-29T05:30:49;92816.50;;;10.68;66.40
52249;BME280;38541;48.130;8.378;2023-05-29T05:33:16;92804.16;;;10.74;66.28
52249;BME280;38541;48.130;8.378;2023-05-29T05:35:42;92811.78;;;10.76;66.67
52249;BME280;38541;48.130;8.378;2023-05-29T05:38:09;92825.75;;;10.92;66.13
52249;BME280;38541;48.130;8.378;2023-05-29T05:40:35;92826.25;;;10.99;66.47
52249;BME280;38541;48.130;8.378;2023-05-29T05:43:11;92814.69;;;11.05;66.23
52249;BME280;38541;48.130;8.378;2023-05-29T05:45:58;92822.06;;;11.13;66.51
52249;BME280;38541;48.130;8.378;2023-05-29T05:48:27;92819.69;;;11.17;66.69
52249;BME280;38541;48.130;8.378;2023-05-29T05:50:53;92823.09;;;11.18;66.24
52249;BME280;38541;48.130;8.378;2023-05-29T05:53:21;92822.84;;;11.24;66.08
52249;BME280;38541;48.130;8.378;2023-05-29T05:55:48;92828.38;;;11.28;66.23
52249;BME280;38541;48.130;8.378;2023-05-29T05:58:14;92825.22;;;11.36;66.55
52249;BME280;38541;48.130;8.378;2023-05-29T06:00:42;92821.22;;;11.54;66.90
52249;BME280;38541;48.130;8.378;2023-05-29T06:03:09;92820.16;;;11.66;66.09
52249;BME280;38541;48.130;8.378;2023-05-29T06:05:52;92821.44;;;11.79;65.62
52249;BME280;38541;48.130;8.378;2023-05-29T06:08:20;92828.53;;;11.89;65.74
52249;BME280;38541;48.130;8.378;2023-05-29T06:10:47;92827.19;;;11.96;65.35
52249;BME280;38541;48.130;8.378;2023-05-29T06:13:13;92817.97;;;12.09;65.15
52249;BME280;38541;48.130;8.378;2023-05-29T06:15:48;92829.78;;;12.22;65.01
52249;BME280;38541;48.130;8.378;2023-05-29T06:18:15;92821.31;;;12.31;64.37
52249;BME280;38541;48.130;8.378;2023-05-29T06:20:41;92824.44;;;12.43;64.19
52249;BME280;38541;48.130;8.378;2023-05-29T06:23:08;92818.03;;;12.54;64.31
52249;BME280;38541;48.130;8.378;2023-05-29T06:25:36;92821.69;;;12.64;63.73
52249;BME280;38541;48.130;8.378;2023-05-29T06:28:05;92818.75;;;12.70;63.19
52249;BME280;38541;48.130;8.378;2023-05-29T06:30:34;92813.13;;;12.82;62.78
52249;BME280;38541;48.130;8.378;2023-05-29T06:33:05;92824.38;;;12.98;61.74
52249;BME280;38541;48.130;8.378;2023-05-29T06:35:33;92826.09;;;13.13;61.51
52249;BME280;38541;48.130;8.378;2023-05-29T06:38:00;92823.91;;;13.26;61.35
52249;BME280;38541;48.130;8.378;2023-05-29T06:40:27;92829.59;;;13.44;61.38
52249;BME280;38541;48.130;8.378;2023-05-29T06:42:54;92826.59;;;13.55;60.74
52249;BME280;38541;48.130;8.378;2023-05-29T06:45:35;92828.00;;;13.72;58.53
52249;BME280;38541;48.130;8.378;2023-05-29T06:48:01;92830.78;;;13.86;57.64
52249;BME280;38541;48.130;8.378;2023-05-29T06:50:28;92830.13;;;14.00;57.14
52249;BME280;38541;48.130;8.378;2023-05-29T06:53:01;92830.22;;;14.13;56.98
52249;BME280;38541;48.130;8.378;2023-05-29T06:55:35;92838.25;;;14.27;56.88
52249;BME280;38541;48.130;8.378;2023-05-29T06:58:01;92832.84;;;14.38;57.08
52249;BME280;38541;48.130;8.378;2023-05-29T07:00:28;92835.38;;;14.48;56.02
52249;BME280;38541;48.130;8.378;2023-05-29T07:03:19;92833.91;;;14.61;55.85
52249;BME280;38541;48.130;8.378;2023-05-29T07:05:47;92846.22;;;14.71;55.44
52249;BME280;38541;48.130;8.378;2023-05-29T07:08:13;92844.25;;;14.82;55.45
52249;BME280;38541;48.130;8.378;2023-05-29T07:10:41;92841.94;;;14.94;54.27
52249;BME280;38541;48.130;8.378;2023-05-29T07:13:08;92848.94;;;15.04;54.44
52249;BME280;38541;48.130;8.378;2023-05-29T07:15:37;92850.66;;;15.14;53.45
52249;BME280;38541;48.130;8.378;2023-05-29T07:18:04;92857.16;;;15.22;53.11
52249;BME280;38541;48.130;8.378;2023-05-29T07:20:31;92848.06;;;15.28;53.14
52249;BME280;38541;48.130;8.378;2023-05-29T07:22:58;92850.56;;;15.38;52.57
52249;BME280;38541;48.130;8.378;2023-05-29T07:25:25;92854.13;;;15.48;51.41
52249;BME280;38541;48.130;8.378;2023-05-29T07:27:52;92850.03;;;15.55;50.47
52249;BME280;38541;48.130;8.378;2023-05-29T07:30:19;92851.22;;;15.63;51.03
52249;BME280;38541;48.130;8.378;2023-05-29T07:32:46;92855.06;;;15.71;51.31
52249;BME280;38541;48.130;8.378;2023-05-29T07:35:13;92852.53;;;15.80;50.33
52249;BME280;38541;48.130;8.378;2023-05-29T07:37:41;92857.44;;;15.87;50.70
52249;BME280;38541;48.130;8.378;2023-05-29T07:40:10;92859.16;;;15.96;51.01
52249;BME280;38541;48.130;8.378;2023-05-29T07:42:55;92857.69;;;16.04;50.56
52249;BME280;38541;48.130;8.378;2023-05-29T07:45:24;92867.63;;;16.13;50.46
52249;BME280;38541;48.130;8.378;2023-05-29T07:47:51;92856.56;;;16.24;51.25
52249;BME280;38541;48.130;8.378;2023-05-29T07:50:18;92858.00;;;16.31;50.21
52249;BME280;38541;48.130;8.378;2023-05-29T07:52:46;92862.94;;;16.37;50.05
52249;BME280;38541;48.130;8.378;2023-05-29T07:55:13;92854.28;;;16.46;50.35
52249;BME280;38541;48.130;8.378;2023-05-29T07:57:39;92860.25;;;16.51;49.62
52249;BME280;38541;48.130;8.378;2023-05-29T08:00:07;92865.06;;;16.63;50.23
52249;BME280;38541;48.130;8.378;2023-05-29T08:02:44;92857.03;;;16.68;49.95
52249;BME280;38541;48.130;8.378;2023-05-29T08:05:34;92858.75;;;16.73;48.28
52249;BME280;38541;48.130;8.378;2023-05-29T08:08:06;92861.25;;;16.69;46.58
52249;BME280;38541;48.130;8.378;2023-05-29T08:10:34;92860.53;;;16.78;48.52
52249;BME280;38541;48.130;8.378;2023-05-29T08:13:02;92858.56;;;16.83;48.05
52249;BME280;38541;48.130;8.378;2023-05-29T08:15:30;92857.97;;;16.87;48.48
52249;BME280;38541;48.130;8.378;2023-05-29T08:17:58;92865.72;;;16.97;46.86
52249;BME280;38541;48.130;8.378;2023-05-29T08:20:24;92864.06;;;17.01;46.67
52249;BME280;38541;48.130;8.378;2023-05-29T08:22:51;92858.34;;;17.08;46.26
52249;BME280;38541;48.130;8.378;2023-05-29T08:25:17;92862.66;;;17.18;46.89
52249;BME280;38541;48.130;8.378;2023-05-29T08:27:44;92860.63;;;17.23;45.67
52249;BME280;38541;48.130;8.378;2023-05-29T08:30:11;92863.19;;;17.29;45.74
52249;BME280;38541;48.130;8.378;2023-05-29T08:32:38;92871.53;;;17.36;44.92
52249;BME280;38541;48.130;8.378;2023-05-29T08:35:04;92867.00;;;17.36;44.91
52249;BME280;38541;48.130;8.378;2023-05-29T08:37:31;92867.84;;;17.46;45.63
52249;BME280;38541;48.130;8.378;2023-05-29T08:39:57;92863.97;;;17.52;45.70
52249;BME280;38541;48.130;8.378;2023-05-29T08:42:32;92867.91;;;17.54;46.31
52249;BME280;38541;48.130;8.378;2023-05-29T08:45:03;92862.16;;;17.61;45.47
52249;BME280;38541;48.130;8.378;2023-05-29T08:47:33;92868.03;;;17.72;45.28
52249;BME280;38541;48.130;8.378;2023-05-29T08:50:01;92864.31;;;17.82;44.51
52249;BME280;38541;48.130;8.378;2023-05-29T08:52:30;92874.34;;;17.85;43.41
52249;BME280;38541;48.130;8.378;2023-05-29T08:54:59;92882.19;;;17.90;40.79
52249;BME280;38541;48.130;8.378;2023-05-29T08:57:28;92877.19;;;17.89;39.97
52249;BME280;38541;48.130;8.378;2023-05-29T08:59:55;92876.56;;;17.92;42.46
52249;BME280;38541;48.130;8.378;2023-05-29T09:02:22;92870.34;;;17.96;41.17
52249;BME280;38541;48.130;8.378;2023-05-29T09:04:50;92875.28;;;18.03;41.51
52249;BME280;38541;48.130;8.378;2023-05-29T09:07:21;92872.75;;;18.07;41.85
52249;BME280;38541;48.130;8.378;2023-05-29T09:09:48;92876.13;;;18.21;43.02
52249;BME280;38541;48.130;8.378;2023-05-29T09:12:16;92880.53;;;18.26;41.45
52249;BME280;38541;48.130;8.378;2023-05-29T09:14:44;92874.31;;;18.31;42.18
52249;BME280;38541;48.130;8.378;2023-05-29T09:17:12;92874.34;;;18.39;42.40
52249;BME280;38541;48.130;8.378;2023-05-29T09:19:39;92877.50;;;18.50;42.51
52249;BME280;38541;48.130;8.378;2023-05-29T09:22:09;92892.03;;;18.53;41.16
52249;BME280;38541;48.130;8.378;2023-05-29T09:24:37;92876.44;;;18.60;41.21
52249;BME280;38541;48.130;8.378;2023-05-29T09:27:05;92884.59;;;18.73;40.49
52249;BME280;38541;48.130;8.378;2023-05-29T09:29:45;92890.72;;;18.73;41.14
52249;BME280;38541;48.130;8.378;2023-05-29T09:32:16;92881.63;;;18.74;40.29
52249;BME280;38541;48.130;8.378;2023-05-29T09:34:44;92876.97;;;18.80;40.84
52249;BME280;38541;48.130;8.378;2023-05-29T09:37:11;92878.22;;;18.91;41.72
52249;BME280;38541;48.130;8.378;2023-05-29T09:42:08;92882.66;;;19.05;40.74
52249;BME280;38541;48.130;8.378;2023-05-29T09:44:35;92875.78;;;19.13;39.72
52249;BME280;38541;48.130;8.378;2023-05-29T09:47:02;92879.06;;;19.09;40.96
52249;BME280;38541;48.130;8.378;2023-05-29T09:49:31;92877.66;;;19.21;41.06
52249;BME280;38541;48.130;8.378;2023-05-29T09:51:58;92878.47;;;19.30;40.93
52249;BME280;38541;48.130;8.378;2023-05-29T09:54:28;92878.63;;;19.43;41.71
52249;BME280;38541;48.130;8.378;2023-05-29T09:56:57;92874.69;;;19.49;41.79
52249;BME280;38541;48.130;8.378;2023-05-29T09:59:24;92874.53;;;19.54;40.86
52249;BME280;38541;48.130;8.378;2023-05-29T10:02:00;92872.66;;;19.55;40.92
52249;BME280;38541;48.130;8.378;2023-05-29T10:04:29;92876.25;;;19.59;42.27
52249;BME280;38541;48.130;8.378;2023-05-29T10:06:56;92880.16;;;19.70;41.45
52249;BME280;38541;48.130;8.378;2023-05-29T10:09:26;92878.44;;;19.74;40.83
52249;BME280;38541;48.130;8.378;2023-05-29T10:11:54;92877.78;;;19.86;41.57
52249;BME280;38541;48.130;8.378;2023-05-29T10:14:25;92886.72;;;19.90;41.04
52249;BME280;38541;48.130;8.378;2023-05-29T10:16:53;92880.44;;;20.04;41.08
52249;BME280;38541;48.130;8.378;2023-05-29T10:19:29;92880.41;;;20.21;40.65
52249;BME280;38541;48.130;8.378;2023-05-29T10:21:56;92881.59;;;20.33;40.77
52249;BME280;38541;48.130;8.378;2023-05-29T10:24:24;92880.94;;;20.45;41.50
52249;BME280;38541;48.130;8.378;2023-05-29T10:26:52;92888.19;;;20.35;41.19
52249;BME280;38541;48.130;8.378;2023-05-29T10:29:28;92880.31;;;20.48;40.60
52249;BME280;38541;48.130;8.378;2023-05-29T10:40:11;92875.03;;;20.99;39.85
52249;BME280;38541;48.130;8.378;2023-05-29T10:42:48;92867.41;;;20.89;40.00
52249;BME280;38541;48.130;8.378;2023-05-29T10:47:56;92869.72;;;21.42;39.15
52249;BME280;38541;48.130;8.378;2023-05-29T10:50:47;92871.31;;;21.76;39.53
52249;BME280;38541;48.130;8.378;2023-05-29T10:53:18;92873.28;;;22.01;38.02
52249;BME280;38541;48.130;8.378;2023-05-29T10:55:50;92871.78;;;22.12;37.76
52249;BME280;38541;48.130;8.378;2023-05-29T10:58:25;92859.44;;;22.45;38.49
52249;BME280;38541;48.130;8.378;2023-05-29T11:00:53;92858.69;;;22.69;38.53
52249;BME280;38541;48.130;8.378;2023-05-29T11:03:29;92855.91;;;22.65;37.91
52249;BME280;38541;48.130;8.378;2023-05-29T11:06:03;92865.78;;;22.40;37.57
52249;BME280;38541;48.130;8.378;2023-05-29T11:08:47;92864.41;;;22.09;37.59
52249;BME280;38541;48.130;8.378;2023-05-29T11:13:57;92870.81;;;23.04;38.81
52249;BME280;38541;48.130;8.378;2023-05-29T11:18:57;92865.16;;;22.68;37.32
52249;BME280;38541;48.130;8.378;2023-05-29T11:24:44;92871.69;;;23.20;36.99
52249;BME280;38541;48.130;8.378;2023-05-29T11:27:11;92865.78;;;23.15;36.74
52249;BME280;38541;48.130;8.378;2023-05-29T11:29:38;92865.09;;;23.18;36.06
52249;BME280;38541;48.130;8.378;2023-05-29T11:32:06;92858.94;;;23.71;39.06
52249;BME280;38541;48.130;8.378;2023-05-29T11:34:39;92858.50;;;23.69;33.76
52249;BME280;38541;48.130;8.378;2023-05-29T11:37:06;92852.81;;;23.42;34.72
52249;BME280;38541;48.130;8.378;2023-05-29T11:39:36;92863.06;;;23.40;35.34
52249;BME280;38541;48.130;8.378;2023-05-29T11:42:04;92857.38;;;23.70;34.36
52249;BME280;38541;48.130;8.378;2023-05-29T11:44:32;92858.91;;;24.12;37.73
52249;BME280;38541;48.130;8.378;2023-05-29T11:47:06;92850.59;;;24.33;34.15
52249;BME280;38541;48.130;8.378;2023-05-29T11:49:35;92852.06;;;24.46;34.40
52249;BME280;38541;48.130;8.378;2023-05-29T11:52:06;92866.63;;;24.29;31.86
52249;BME280;38541;48.130;8.378;2023-05-29T11:54:42;92855.28;;;24.52;33.00
52249;BME280;38541;48.130;8.378;2023-05-29T11:57:20;92849.72;;;24.77;35.50
52249;BME280;38541;48.130;8.378;2023-05-29T11:59:49;92855.53;;;24.31;32.12
52249;BME280;38541;48.130;8.378;2023-05-29T12:02:16;92849.22;;;24.39;31.28
52249;BME280;38541;48.130;8.378;2023-05-29T12:04:42;92851.44;;;24.69;32.74
52249;BME280;38541;48.130;8.378;2023-05-29T12:07:19;92854.41;;;24.64;32.46
52249;BME280;38541;48.130;8.378;2023-05-29T12:09:45;92863.84;;;24.90;34.96
52249;BME280;38541;48.130;8.378;2023-05-29T12:12:14;92865.81;;;25.09;29.65
52249;BME280;38541;48.130;8.378;2023-05-29T12:14:40;92854.03;;;25.33;29.45
52249;BME280;38541;48.130;8.378;2023-05-29T12:17:07;92852.47;;;25.32;31.34
52249;BME280;38541;48.130;8.378;2023-05-29T12:19:36;92850.13;;;25.31;29.37
52249;BME280;38541;48.130;8.378;2023-05-29T12:22:03;92840.63;;;25.73;32.57
52249;BME280;38541;48.130;8.378;2023-05-29T12:24:29;92847.38;;;25.86;31.00
52249;BME280;38541;48.130;8.378;2023-05-29T12:27:08;92851.31;;;25.69;31.77
52249;BME280;38541;48.130;8.378;2023-05-29T12:29:35;92855.75;;;25.61;29.70
52249;BME280;38541;48.130;8.378;2023-05-29T12:32:01;92859.94;;;25.98;31.45
52249;BME280;38541;48.130;8.378;2023-05-29T12:34:34;92851.00;;;25.94;28.72
52249;BME280;38541;48.130;8.378;2023-05-29T12:37:07;92856.63;;;26.28;31.89
52249;BME280;38541;48.130;8.378;2023-05-29T12:39:39;92858.09;;;26.72;30.99
52249;BME280;38541;48.130;8.378;2023-05-29T12:42:06;92859.66;;;26.73;30.34
52249;BME280;38541;48.130;8.378;2023-05-29T12:44:33;92852.72;;;26.72;29.84
52249;BME280;38541;48.130;8.378;2023-05-29T12:47:00;92857.34;;;26.48;29.36
52249;BME280;38541;48.130;8.378;2023-05-29T12:49:26;92856.69;;;26.32;30.39
52249;BME280;38541;48.130;8.378;2023-05-29T12:52:04;92860.53;;;26.31;29.66
52249;BME280;38541;48.130;8.378;2023-05-29T12:54:31;92860.84;;;26.99;29.78
52249;BME280;38541;48.130;8.378;2023-05-29T12:56:58;92868.72;;;28.83;28.01
52249;BME280;38541;48.130;8.378;2023-05-29T12:59:27;92866.13;;;32.07;23.96
52249;BME280;38541;48.130;8.378;2023-05-29T13:01:53;92882.59;;;34.21;20.50
52249;BME280;38541;48.130;8.378;2023-05-29T13:04:20;92865.28;;;34.62;20.71
52249;BME280;38541;48.130;8.378;2023-05-29T13:06:47;92873.28;;;36.46;18.71
52249;BME280;38541;48.130;8.378;2023-05-29T13:09:13;92878.19;;;36.54;19.11
52249;BME280;38541;48.130;8.378;2023-05-29T13:11:40;92872.50;;;36.08;19.13
52249;BME280;38541;48.130;8.378;2023-05-29T13:14:07;92887.75;;;34.97;18.78
52249;BME280;38541;48.130;8.378;2023-05-29T13:16:33;92877.28;;;35.64;18.08
52249;BME280;38541;48.130;8.378;2023-05-29T13:19:01;92873.50;;;37.21;17.86
52249;BME280;38541;48.130;8.378;2023-05-29T13:21:28;92871.22;;;37.66;17.54
52249;BME280;38541;48.130;8.378;2023-05-29T13:23:54;92876.44;;;37.90;16.42
52249;BME280;38541;48.130;8.378;2023-05-29T13:26:21;92864.28;;;34.49;18.08
52249;BME280;38541;48.130;8.378;2023-05-29T13:28:48;92860.22;;;35.36;18.44
52249;BME280;38541;48.130;8.378;2023-05-29T13:31:15;92867.38;;;37.17;19.09
52249;BME280;38541;48.130;8.378;2023-05-29T13:33:41;92866.78;;;37.56;16.57